Time;durP1;ratioP1;P1;durP2;ratioP2;P2;SDS_P1;SDS_P2;PMS_P1;PMS_P2;Temp;Humidity;BMP_temperature;BMP_pressure;BME280_temperature;BME280_humidity;BME280_pressure;Samples;Min_cycle;Max_cycle;Signal;HPM_P1;HPM_P2
2023/12/27 00:00:03;;;;;;;54.08;51.28;;;;;;;;;;5032964;28;20514;-52
2023/12/27 00:02:29;;;;;;;54.65;51.85;;;;;;;;;;5028209;28;20315;-49
2023/12/27 00:04:54;;;;;;;55.95;53.05;;;;;;;;;;5030105;28;20069;-52
2023/12/27 00:07:20;;;;;;;55.75;52.83;;;;;;;;;;5024011;28;20099;-52
2023/12/27 00:09:45;;;;;;;53.55;50.83;;;;;;;;;;5027674;28;20035;-49
2023/12/27 00:12:11;;;;;;;50.95;48.35;;;;;;;;;;5033886;28;20047;-52
2023/12/27 00:14:36;;;;;;;53.83;51.05;;;;;;;;;;5027510;28;20037;-54
2023/12/27 00:17:02;;;;;;;53.13;50.42;;;;;;;;;;5027723;28;20064;-53
2023/12/27 00:19:28;;;;;;;55.22;51.97;;;;;;;;;;5023303;28;20040;-50
2023/12/27 00:21:53;;;;;;;58.58;55.35;;;;;;;;;;5024811;28;20041;-49
2023/12/27 00:24:18;;;;;;;54.40;51.60;;;;;;;;;;5027019;28;20041;-48
2023/12/27 00:26:43;;;;;;;54.33;51.63;;;;;;;;;;5030211;28;20063;-49
2023/12/27 00:29:09;;;;;;;55.60;52.67;;;;;;;;;;5030161;28;20032;-51
2023/12/27 00:31:34;;;;;;;54.38;51.58;;;;;;;;;;5027778;28;20037;-50
2023/12/27 00:34:00;;;;;;;52.75;50.08;;;;;;;;;;5028288;28;20379;-47
2023/12/27 00:36:29;;;;;;;54.53;51.78;;;;;;;;;;5025943;28;20521;-49
2023/12/27 00:38:55;;;;;;;55.88;53.00;;;;;;;;;;5029366;28;20199;-49
2023/12/27 00:41:21;;;;;;;54.13;51.28;;;;;;;;;;5033807;28;20051;-48
2023/12/27 00:43:46;;;;;;;54.33;51.58;;;;;;;;;;5033287;28;20842;-46
2023/12/27 00:46:11;;;;;;;56.30;53.35;;;;;;;;;;5032749;28;20455;-46
2023/12/27 00:48:37;;;;;;;59.50;56.45;;;;;;;;;;5029993;28;20044;-49
2023/12/27 00:51:05;;;;;;;56.90;54.00;;;;;;;;;;5033711;28;20797;-49
2023/12/27 00:53:30;;;;;;;57.00;54.00;;;;;;;;;;5031030;28;20055;-48
2023/12/27 00:55:55;;;;;;;53.90;51.13;;;;;;;;;;5030238;28;20037;-50
2023/12/27 00:58:21;;;;;;;55.95;53.08;;;;;;;;;;5029916;28;20033;-50
2023/12/27 01:00:46;;;;;;;53.30;50.60;;;;;;;;;;5028792;28;20128;-51
2023/12/27 01:03:12;;;;;;;53.55;50.85;;;;;;;;;;5027309;28;20033;-49
2023/12/27 01:05:37;;;;;;;56.78;53.88;;;;;;;;;;5030262;28;20043;-46
2023/12/27 01:08:03;;;;;;;55.10;52.20;;;;;;;;;;5032000;28;20125;-47
2023/12/27 01:10:28;;;;;;;53.33;50.60;;;;;;;;;;5028362;28;20064;-47
2023/12/27 01:12:55;;;;;;;53.50;50.70;;;;;;;;;;5026954;28;20088;-50
2023/12/27 01:15:20;;;;;;;54.35;51.55;;;;;;;;;;5026310;28;20036;-48
2023/12/27 01:17:45;;;;;;;55.25;52.45;;;;;;;;;;5032977;28;20044;-49
2023/12/27 01:20:11;;;;;;;56.97;54.03;;;;;;;;;;5030469;28;20044;-50
2023/12/27 01:22:36;;;;;;;55.17;52.38;;;;;;;;;;5029292;28;20087;-47
2023/12/27 01:25:01;;;;;;;53.80;51.03;;;;;;;;;;5030622;28;20117;-47
2023/12/27 01:27:27;;;;;;;53.50;50.80;;;;;;;;;;5029533;28;20122;-48
2023/12/27 01:29:52;;;;;;;54.30;51.40;;;;;;;;;;5025722;28;20124;-45
2023/12/27 01:32:17;;;;;;;55.80;52.80;;;;;;;;;;5030668;28;20037;-47
2023/12/27 01:34:42;;;;;;;54.83;51.92;;;;;;;;;;5033138;28;20079;-49
2023/12/27 01:37:08;;;;;;;54.55;51.65;;;;;;;;;;5033833;28;20102;-46
2023/12/27 01:39:33;;;;;;;57.00;54.10;;;;;;;;;;5030381;28;20465;-46
2023/12/27 01:42:01;;;;;;;54.05;51.25;;;;;;;;;;5029039;28;20059;-46
2023/12/27 01:44:26;;;;;;;54.63;51.80;;;;;;;;;;5028287;28;20044;-51
2023/12/27 01:46:51;;;;;;;55.28;52.38;;;;;;;;;;5032396;28;20038;-46
2023/12/27 01:49:17;;;;;;;50.80;48.10;;;;;;;;;;5028349;28;20054;-46
2023/12/27 01:51:42;;;;;;;54.65;51.85;;;;;;;;;;5028787;28;20132;-47
2023/12/27 01:54:07;;;;;;;55.13;52.28;;;;;;;;;;5032550;28;20036;-46
2023/12/27 01:56:33;;;;;;;56.05;52.60;;;;;;;;;;5027512;28;20072;-47
2023/12/27 01:58:59;;;;;;;53.40;50.55;;;;;;;;;;5043905;28;20087;-51
2023/12/27 02:01:24;;;;;;;55.78;52.97;;;;;;;;;;5026757;28;20037;-49
2023/12/27 02:03:49;;;;;;;52.85;49.85;;;;;;;;;;5029736;28;20029;-47
2023/12/27 02:06:15;;;;;;;55.92;53.13;;;;;;;;;;5025647;28;20116;-47
2023/12/27 02:08:40;;;;;;;55.35;52.53;;;;;;;;;;5029999;28;20037;-49
2023/12/27 02:11:06;;;;;;;55.10;52.25;;;;;;;;;;5029854;28;20040;-48
2023/12/27 02:13:31;;;;;;;55.03;52.05;;;;;;;;;;5027003;28;20033;-50
2023/12/27 02:15:57;;;;;;;57.20;54.17;;;;;;;;;;5030689;28;20108;-47
2023/12/27 02:18:22;;;;;;;56.38;53.47;;;;;;;;;;5029475;28;20025;-51
2023/12/27 02:20:49;;;;;;;54.25;51.28;;;;;;;;;;5030591;28;20048;-48
2023/12/27 02:23:18;;;;;;;54.13;51.33;;;;;;;;;;5028628;28;20051;-50
2023/12/27 02:25:44;;;;;;;56.15;53.25;;;;;;;;;;5032589;28;20053;-48
2023/12/27 02:28:09;;;;;;;55.83;52.95;;;;;;;;;;5034681;28;20037;-49
2023/12/27 02:30:36;;;;;;;53.67;50.88;;;;;;;;;;5028721;28;20033;-46
2023/12/27 02:33:02;;;;;;;54.60;51.80;;;;;;;;;;5030512;28;20375;-50
2023/12/27 02:35:27;;;;;;;55.20;52.40;;;;;;;;;;5029557;28;20033;-49
2023/12/27 02:37:53;;;;;;;54.45;51.65;;;;;;;;;;5027190;28;20108;-50
2023/12/27 02:40:18;;;;;;;52.65;49.92;;;;;;;;;;5026039;28;20042;-52
2023/12/27 02:42:43;;;;;;;52.22;49.53;;;;;;;;;;5027943;28;20463;-47
2023/12/27 02:45:09;;;;;;;53.88;51.08;;;;;;;;;;5026067;28;20034;-48
2023/12/27 02:47:34;;;;;;;56.25;53.40;;;;;;;;;;5025141;28;20033;-50
2023/12/27 02:49:59;;;;;;;53.92;51.20;;;;;;;;;;5027923;28;20052;-51
2023/12/27 02:52:25;;;;;;;52.70;49.97;;;;;;;;;;5029194;28;20539;-48
2023/12/27 02:54:51;;;;;;;54.75;51.83;;;;;;;;;;5027766;28;20060;-50
2023/12/27 02:57:16;;;;;;;52.30;49.60;;;;;;;;;;5028655;28;20033;-48
2023/12/27 02:59:41;;;;;;;53.83;51.10;;;;;;;;;;5027758;28;20033;-48
2023/12/27 03:02:07;;;;;;;50.65;48.05;;;;;;;;;;5028040;28;20121;-49
2023/12/27 03:04:32;;;;;;;52.80;50.10;;;;;;;;;;5028885;28;20417;-46
2023/12/27 03:06:57;;;;;;;56.05;53.05;;;;;;;;;;5026246;28;20036;-47
2023/12/27 03:09:24;;;;;;;53.83;51.08;;;;;;;;;;5024730;28;20123;-48
2023/12/27 03:11:50;;;;;;;52.58;49.92;;;;;;;;;;5029239;28;20064;-46
2023/12/27 03:14:15;;;;;;;53.80;51.08;;;;;;;;;;5027433;28;20111;-48
2023/12/27 03:16:41;;;;;;;54.83;52.03;;;;;;;;;;5033496;28;20244;-50
2023/12/27 03:19:06;;;;;;;51.55;48.95;;;;;;;;;;5033219;28;20112;-49
2023/12/27 03:21:32;;;;;;;51.90;49.20;;;;;;;;;;5033993;28;20029;-50
2023/12/27 03:23:57;;;;;;;56.38;53.50;;;;;;;;;;5026960;28;20033;-49
2023/12/27 03:26:23;;;;;;;55.58;52.78;;;;;;;;;;5027694;28;20033;-48
2023/12/27 03:28:48;;;;;;;54.88;51.88;;;;;;;;;;5030137;28;20415;-48
2023/12/27 03:31:13;;;;;;;54.13;51.33;;;;;;;;;;5025965;28;20033;-51
2023/12/27 03:33:39;;;;;;;51.05;48.35;;;;;;;;;;5028440;28;20553;-48
2023/12/27 03:36:04;;;;;;;52.65;49.83;;;;;;;;;;5024688;28;20034;-51
2023/12/27 03:38:30;;;;;;;52.85;50.15;;;;;;;;;;5025584;28;20425;-50
2023/12/27 03:40:55;;;;;;;50.75;48.15;;;;;;;;;;5024455;28;20036;-49
2023/12/27 03:43:20;;;;;;;55.10;52.30;;;;;;;;;;5030339;28;20052;-48
2023/12/27 03:45:46;;;;;;;51.08;48.47;;;;;;;;;;5026469;28;20048;-47
2023/12/27 03:48:11;;;;;;;53.58;50.88;;;;;;;;;;5023395;28;20083;-47
2023/12/27 03:50:37;;;;;;;55.53;52.58;;;;;;;;;;5024066;28;20029;-48
2023/12/27 03:53:02;;;;;;;54.33;51.53;;;;;;;;;;5030321;28;20078;-47
2023/12/27 03:55:27;;;;;;;50.90;48.10;;;;;;;;;;5031580;28;20049;-51
2023/12/27 03:57:53;;;;;;;53.25;50.38;;;;;;;;;;5038893;28;20088;-48
2023/12/27 04:00:19;;;;;;;57.47;54.58;;;;;;;;;;5027862;28;20088;-50
2023/12/27 04:02:45;;;;;;;52.08;49.38;;;;;;;;;;5023709;28;20034;-46
2023/12/27 04:05:11;;;;;;;51.80;49.10;;;;;;;;;;5026477;28;20045;-46
2023/12/27 04:07:36;;;;;;;52.55;49.78;;;;;;;;;;5027806;28;20076;-47
2023/12/27 04:10:03;;;;;;;54.20;51.30;;;;;;;;;;5026307;28;20041;-46
2023/12/27 04:12:28;;;;;;;51.38;48.78;;;;;;;;;;5024958;28;20550;-49
2023/12/27 04:14:53;;;;;;;50.70;48.10;;;;;;;;;;5032299;28;20136;-45
2023/12/27 04:17:19;;;;;;;54.67;51.58;;;;;;;;;;5033622;28;20099;-48
2023/12/27 04:19:44;;;;;;;52.60;49.85;;;;;;;;;;5029739;28;20112;-46
2023/12/27 04:22:09;;;;;;;54.53;51.53;;;;;;;;;;5031907;28;20099;-48
2023/12/27 04:24:35;;;;;;;50.35;47.53;;;;;;;;;;5029172;28;20036;-51
2023/12/27 04:27:01;;;;;;;51.50;48.30;;;;;;;;;;5033403;28;20133;-46
2023/12/27 04:29:26;;;;;;;47.80;45.30;;;;;;;;;;5030121;28;20038;-48
2023/12/27 04:31:51;;;;;;;46.55;44.15;;;;;;;;;;5028635;28;20044;-46
2023/12/27 04:34:17;;;;;;;48.40;45.70;;;;;;;;;;5028295;28;20037;-46
2023/12/27 04:36:42;;;;;;;47.38;44.88;;;;;;;;;;5030419;28;20059;-50
2023/12/27 04:39:07;;;;;;;45.45;42.97;;;;;;;;;;5029114;28;20091;-48
2023/12/27 04:41:33;;;;;;;44.22;41.90;;;;;;;;;;5028420;28;20114;-48
2023/12/27 04:43:58;;;;;;;44.42;42.13;;;;;;;;;;5030669;28;20124;-47
2023/12/27 04:46:23;;;;;;;43.30;41.10;;;;;;;;;;5029690;28;20050;-46
2023/12/27 04:48:49;;;;;;;45.60;43.22;;;;;;;;;;5032217;28;20048;-49
2023/12/27 04:51:14;;;;;;;44.20;41.78;;;;;;;;;;5034096;28;20041;-48
2023/12/27 04:53:39;;;;;;;42.38;40.17;;;;;;;;;;5033950;28;20099;-47
2023/12/27 04:56:05;;;;;;;45.42;43.03;;;;;;;;;;5027978;28;20036;-50
2023/12/27 04:58:35;;;;;;;43.42;41.13;;;;;;;;;;5030331;28;20517;-46
2023/12/27 05:01:03;;;;;;;43.83;41.38;;;;;;;;;;5031110;28;20033;-47
2023/12/27 05:03:28;;;;;;;45.97;43.60;;;;;;;;;;5035556;28;20040;-47
2023/12/27 05:05:53;;;;;;;42.80;40.58;;;;;;;;;;5031167;28;20029;-48
2023/12/27 05:08:18;;;;;;;46.08;43.63;;;;;;;;;;5034462;28;20457;-47
2023/12/27 05:10:44;;;;;;;45.03;42.53;;;;;;;;;;5030945;28;20124;-51
2023/12/27 05:13:09;;;;;;;41.60;39.40;;;;;;;;;;5029026;28;20091;-48
2023/12/27 05:15:34;;;;;;;41.22;39.08;;;;;;;;;;5031055;28;20103;-47
2023/12/27 05:18:00;;;;;;;41.15;39.00;;;;;;;;;;5033246;28;20045;-49
2023/12/27 05:20:25;;;;;;;43.40;41.15;;;;;;;;;;5033244;28;20029;-52
2023/12/27 05:22:50;;;;;;;42.55;40.15;;;;;;;;;;5029921;28;20044;-46
2023/12/27 05:25:16;;;;;;;42.38;39.72;;;;;;;;;;5031976;28;20029;-47
2023/12/27 05:27:41;;;;;;;43.67;41.20;;;;;;;;;;5030629;28;20037;-48
2023/12/27 05:30:09;;;;;;;44.13;41.83;;;;;;;;;;5029924;28;20143;-45
2023/12/27 05:32:34;;;;;;;42.03;39.63;;;;;;;;;;5031264;28;20048;-48
2023/12/27 05:34:59;;;;;;;42.03;39.85;;;;;;;;;;5030525;28;20042;-50
2023/12/27 05:37:25;;;;;;;40.97;38.88;;;;;;;;;;5033291;28;20037;-48
2023/12/27 05:39:50;;;;;;;43.95;41.67;;;;;;;;;;5035032;28;20517;-49
2023/12/27 05:42:15;;;;;;;43.58;41.28;;;;;;;;;;5030157;28;20128;-45
2023/12/27 05:44:41;;;;;;;41.90;39.35;;;;;;;;;;5032340;28;20439;-51
2023/12/27 05:47:07;;;;;;;45.05;42.65;;;;;;;;;;5031740;28;20037;-45
2023/12/27 05:49:33;;;;;;;42.63;40.13;;;;;;;;;;5030823;28;20036;-48
2023/12/27 05:51:59;;;;;;;39.50;37.40;;;;;;;;;;5029473;28;21318;-50
2023/12/27 05:54:26;;;;;;;42.60;40.30;;;;;;;;;;5026512;28;20034;-48
2023/12/27 05:56:52;;;;;;;41.33;39.17;;;;;;;;;;5032572;28;20039;-46
2023/12/27 05:59:18;;;;;;;41.40;39.03;;;;;;;;;;5031112;28;20032;-48
2023/12/27 06:01:48;;;;;;;43.70;41.35;;;;;;;;;;5030813;28;20044;-47
2023/12/27 06:04:17;;;;;;;38.65;36.65;;;;;;;;;;5031954;28;20045;-49
2023/12/27 06:06:43;;;;;;;39.65;37.55;;;;;;;;;;5030172;28;20091;-52
2023/12/27 06:09:09;;;;;;;39.42;37.42;;;;;;;;;;5028070;28;20030;-47
2023/12/27 06:11:34;;;;;;;43.08;40.67;;;;;;;;;;5031876;28;20029;-48
2023/12/27 06:14:00;;;;;;;42.53;40.30;;;;;;;;;;5027196;28;20030;-46
2023/12/27 06:16:25;;;;;;;41.97;39.78;;;;;;;;;;5028842;28;20041;-48
2023/12/27 06:18:54;;;;;;;41.15;38.75;;;;;;;;;;5030949;28;20059;-50
2023/12/27 06:21:20;;;;;;;40.88;38.67;;;;;;;;;;5028196;28;20033;-49
2023/12/27 06:23:46;;;;;;;41.10;38.90;;;;;;;;;;5028983;28;20114;-52
2023/12/27 06:26:11;;;;;;;39.40;37.25;;;;;;;;;;5028112;28;20041;-53
2023/12/27 06:28:36;;;;;;;39.50;37.47;;;;;;;;;;5029670;28;20033;-45
2023/12/27 06:31:02;;;;;;;40.17;38.08;;;;;;;;;;5025856;28;20349;-47
2023/12/27 06:33:27;;;;;;;40.78;38.63;;;;;;;;;;5026289;28;20178;-46
2023/12/27 06:35:52;;;;;;;44.78;42.05;;;;;;;;;;5027129;28;20057;-47
2023/12/27 06:38:18;;;;;;;42.60;40.40;;;;;;;;;;5030283;28;20680;-47
2023/12/27 06:40:43;;;;;;;41.75;39.35;;;;;;;;;;5026399;28;20083;-45
2023/12/27 06:43:08;;;;;;;41.63;39.42;;;;;;;;;;5025379;28;20056;-46
2023/12/27 06:45:34;;;;;;;41.83;39.67;;;;;;;;;;5028434;28;20510;-46
2023/12/27 06:47:59;;;;;;;44.05;41.80;;;;;;;;;;5028415;28;20101;-45
2023/12/27 06:50:24;;;;;;;40.22;38.10;;;;;;;;;;5027663;28;20044;-49
2023/12/27 06:52:50;;;;;;;42.03;39.85;;;;;;;;;;5030547;28;20040;-46
2023/12/27 06:55:16;;;;;;;40.85;38.75;;;;;;;;;;5027793;28;20041;-45
2023/12/27 06:57:41;;;;;;;40.95;38.65;;;;;;;;;;5032764;28;20029;-49
2023/12/27 07:00:07;;;;;;;39.67;37.50;;;;;;;;;;5002500;28;20541;-48
2023/12/27 07:02:33;;;;;;;39.42;36.65;;;;;;;;;;5031587;28;20034;-47
2023/12/27 07:04:58;;;;;;;39.25;37.25;;;;;;;;;;5031456;28;20474;-47
2023/12/27 07:07:23;;;;;;;40.28;38.17;;;;;;;;;;5030842;28;20367;-47
2023/12/27 07:09:49;;;;;;;40.70;38.60;;;;;;;;;;5026954;28;20568;-49
2023/12/27 07:12:14;;;;;;;38.53;36.53;;;;;;;;;;5028528;28;20076;-50
2023/12/27 07:14:39;;;;;;;38.75;36.75;;;;;;;;;;5028336;28;20025;-47
2023/12/27 07:17:05;;;;;;;40.20;38.00;;;;;;;;;;5025223;28;20108;-49
2023/12/27 07:19:30;;;;;;;37.60;35.63;;;;;;;;;;5022205;28;20705;-48
2023/12/27 07:21:55;;;;;;;39.67;37.58;;;;;;;;;;5027396;28;20047;-46
2023/12/27 07:24:22;;;;;;;41.20;39.10;;;;;;;;;;5028672;28;20108;-48
2023/12/27 07:26:48;;;;;;;42.38;40.08;;;;;;;;;;5031553;28;20041;-47
2023/12/27 07:29:13;;;;;;;39.15;37.05;;;;;;;;;;5029374;28;20033;-48
2023/12/27 07:31:38;;;;;;;40.45;37.95;;;;;;;;;;5031142;28;20037;-47
2023/12/27 07:34:04;;;;;;;39.60;37.50;;;;;;;;;;5027688;28;20056;-46
2023/12/27 07:36:29;;;;;;;40.22;38.00;;;;;;;;;;5030409;28;20095;-46
2023/12/27 07:38:54;;;;;;;40.33;38.20;;;;;;;;;;5028301;28;20060;-47
2023/12/27 07:41:20;;;;;;;40.30;38.13;;;;;;;;;;5027693;28;20040;-46
2023/12/27 07:43:46;;;;;;;40.03;37.92;;;;;;;;;;5029672;28;20029;-46
2023/12/27 07:46:12;;;;;;;40.22;38.03;;;;;;;;;;5027282;28;20034;-47
2023/12/27 07:48:37;;;;;;;41.00;38.90;;;;;;;;;;5028459;28;20041;-45
2023/12/27 07:51:03;;;;;;;40.55;38.45;;;;;;;;;;5028607;28;20069;-46
2023/12/27 07:53:29;;;;;;;46.45;43.97;;;;;;;;;;5029122;28;20033;-46
2023/12/27 07:55:54;;;;;;;41.72;39.53;;;;;;;;;;5027386;28;20083;-47
2023/12/27 07:58:20;;;;;;;41.08;38.95;;;;;;;;;;5027263;28;20037;-47
2023/12/27 08:00:45;;;;;;;42.60;40.40;;;;;;;;;;5026256;28;20368;-50
2023/12/27 08:03:10;;;;;;;42.35;40.15;;;;;;;;;;5025249;28;20061;-46
2023/12/27 08:05:36;;;;;;;43.33;41.03;;;;;;;;;;5028802;28;20444;-46
2023/12/27 08:08:04;;;;;;;41.80;39.60;;;;;;;;;;5026683;28;20080;-47
2023/12/27 08:10:31;;;;;;;42.03;39.75;;;;;;;;;;5027192;28;20141;-48
2023/12/27 08:12:57;;;;;;;40.95;38.85;;;;;;;;;;5022995;28;20029;-46
2023/12/27 08:15:22;;;;;;;43.65;40.53;;;;;;;;;;5028530;28;20037;-48
2023/12/27 08:17:47;;;;;;;43.25;40.95;;;;;;;;;;5028961;28;20042;-48
2023/12/27 08:20:13;;;;;;;48.95;46.22;;;;;;;;;;5026937;28;20045;-58
2023/12/27 08:22:38;;;;;;;47.13;44.72;;;;;;;;;;5012307;28;20108;-53
2023/12/27 08:25:08;;;;;;;46.88;43.78;;;;;;;;;;5029261;28;20130;-52
2023/12/27 08:27:34;;;;;;;47.83;44.20;;;;;;;;;;5023310;28;20040;-57
2023/12/27 08:30:04;;;;;;;45.42;43.13;;;;;;;;;;5028474;28;20132;-54
2023/12/27 08:32:29;;;;;;;44.10;41.80;;;;;;;;;;5026493;28;20489;-56
2023/12/27 08:34:55;;;;;;;45.35;42.95;;;;;;;;;;5028888;28;20129;-54
2023/12/27 08:37:20;;;;;;;46.67;44.25;;;;;;;;;;5025984;28;20403;-54
2023/12/27 08:39:46;;;;;;;46.75;43.90;;;;;;;;;;5025748;28;20025;-54
2023/12/27 08:42:11;;;;;;;46.63;44.22;;;;;;;;;;5027465;28;20163;-55
2023/12/27 08:44:36;;;;;;;47.45;44.95;;;;;;;;;;5028687;28;20042;-56
2023/12/27 08:47:02;;;;;;;47.20;44.80;;;;;;;;;;5032003;28;20416;-56
2023/12/27 08:49:28;;;;;;;48.22;45.72;;;;;;;;;;5028453;28;20361;-56
2023/12/27 08:51:53;;;;;;;46.28;43.88;;;;;;;;;;5032619;28;20037;-54
2023/12/27 08:54:19;;;;;;;47.75;45.30;;;;;;;;;;5027655;28;20029;-58
2023/12/27 08:56:45;;;;;;;55.75;52.72;;;;;;;;;;5027948;28;20048;-56
2023/12/27 08:59:10;;;;;;;43.55;41.25;;;;;;;;;;5025034;28;20045;-53
2023/12/27 09:01:35;;;;;;;40.55;37.90;;;;;;;;;;5030987;28;20512;-54
2023/12/27 09:04:01;;;;;;;40.90;38.75;;;;;;;;;;5027991;28;20061;-54
2023/12/27 09:06:26;;;;;;;41.20;39.10;;;;;;;;;;5027339;28;20029;-55
2023/12/27 09:08:52;;;;;;;41.75;39.55;;;;;;;;;;5028081;28;20030;-57
2023/12/27 09:11:18;;;;;;;39.80;37.75;;;;;;;;;;5030403;28;20356;-56
2023/12/27 09:13:44;;;;;;;42.63;40.42;;;;;;;;;;5031756;28;20116;-56
2023/12/27 09:16:09;;;;;;;41.83;39.53;;;;;;;;;;5027669;28;20325;-55
2023/12/27 09:18:34;;;;;;;42.08;39.58;;;;;;;;;;5029310;28;20034;-55
2023/12/27 09:21:00;;;;;;;41.30;39.17;;;;;;;;;;5030220;28;20033;-56
2023/12/27 09:23:25;;;;;;;38.38;36.38;;;;;;;;;;5028073;28;20065;-55
2023/12/27 09:25:51;;;;;;;37.40;35.50;;;;;;;;;;5031153;28;20030;-57
2023/12/27 09:28:18;;;;;;;35.63;33.83;;;;;;;;;;5031192;28;20373;-58
2023/12/27 09:30:43;;;;;;;36.05;34.08;;;;;;;;;;5030664;28;20403;-54
2023/12/27 09:33:09;;;;;;;35.67;33.85;;;;;;;;;;5026334;28;20033;-54
2023/12/27 09:35:34;;;;;;;35.05;33.15;;;;;;;;;;5026518;28;20037;-56
2023/12/27 09:37:59;;;;;;;36.80;34.33;;;;;;;;;;5020086;28;20104;-55
2023/12/27 09:40:25;;;;;;;32.80;31.10;;;;;;;;;;5025953;28;20128;-56
2023/12/27 09:42:52;;;;;;;35.22;33.33;;;;;;;;;;5024836;28;20073;-56
2023/12/27 09:45:20;;;;;;;34.13;32.13;;;;;;;;;;5030221;28;20577;-60
2023/12/27 09:47:53;;;;;;;31.25;29.65;;;;;;;;;;5027959;28;20052;-59
2023/12/27 09:50:19;;;;;;;30.08;28.48;;;;;;;;;;5030118;28;20033;-57
2023/12/27 09:52:47;;;;;;;28.95;27.45;;;;;;;;;;5028210;28;20514;-57
2023/12/27 09:55:13;;;;;;;30.73;29.10;;;;;;;;;;5029191;28;20094;-56
2023/12/27 09:57:40;;;;;;;30.20;28.55;;;;;;;;;;5032923;28;20045;-57
2023/12/27 10:00:09;;;;;;;29.10;27.48;;;;;;;;;;5026765;28;20033;-55
2023/12/27 10:02:36;;;;;;;30.05;28.42;;;;;;;;;;5024983;28;20037;-57
2023/12/27 10:05:22;;;;;;;30.70;29.10;;;;;;;;;;5024445;28;20152;-57
2023/12/27 10:07:48;;;;;;;31.60;29.90;;;;;;;;;;5027180;28;20547;-57
2023/12/27 10:10:14;;;;;;;31.13;29.40;;;;;;;;;;5029865;28;20068;-57
2023/12/27 10:12:41;;;;;;;30.65;29.05;;;;;;;;;;5034693;28;20026;-57
2023/12/27 10:15:08;;;;;;;30.48;28.88;;;;;;;;;;5032424;28;20047;-56
2023/12/27 10:17:33;;;;;;;32.05;30.35;;;;;;;;;;5028576;28;20040;-58
2023/12/27 10:19:59;;;;;;;32.33;30.40;;;;;;;;;;5033045;28;20021;-57
2023/12/27 10:22:25;;;;;;;32.45;30.75;;;;;;;;;;5029589;28;20578;-58
2023/12/27 10:24:52;;;;;;;32.35;30.65;;;;;;;;;;5029412;28;20030;-59
2023/12/27 10:27:17;;;;;;;30.95;29.35;;;;;;;;;;5031827;28;20040;-58
2023/12/27 10:29:49;;;;;;;32.70;31.00;;;;;;;;;;5025975;28;20034;-57
2023/12/27 10:32:17;;;;;;;32.63;30.83;;;;;;;;;;5028155;28;20037;-58
2023/12/27 10:34:43;;;;;;;32.70;30.90;;;;;;;;;;5029903;28;20037;-56
2023/12/27 10:37:12;;;;;;;34.47;32.30;;;;;;;;;;5032172;28;20715;-57
2023/12/27 10:39:44;;;;;;;32.30;30.60;;;;;;;;;;5024312;28;20041;-57
2023/12/27 10:42:12;;;;;;;34.40;32.53;;;;;;;;;;5031294;28;20044;-57
2023/12/27 10:44:37;;;;;;;30.92;29.23;;;;;;;;;;5027515;28;20382;-58
2023/12/27 10:47:05;;;;;;;30.95;29.35;;;;;;;;;;5027852;28;20026;-57
2023/12/27 10:49:33;;;;;;;31.40;29.77;;;;;;;;;;5027295;28;20525;-56
2023/12/27 10:51:59;;;;;;;33.58;31.77;;;;;;;;;;5027234;28;20459;-57
2023/12/27 10:54:26;;;;;;;31.02;29.42;;;;;;;;;;5025899;28;20606;-56
2023/12/27 10:56:53;;;;;;;32.35;30.65;;;;;;;;;;5030646;28;21200;-57
2023/12/27 10:59:19;;;;;;;29.70;28.08;;;;;;;;;;5030185;28;20039;-57
2023/12/27 11:01:44;;;;;;;30.13;28.55;;;;;;;;;;5022955;28;20140;-57
2023/12/27 11:04:11;;;;;;;31.08;29.42;;;;;;;;;;5026818;28;20030;-59
2023/12/27 11:06:38;;;;;;;31.13;29.52;;;;;;;;;;5022288;28;20546;-57
2023/12/27 11:09:09;;;;;;;29.20;27.70;;;;;;;;;;5025148;28;20064;-56
2023/12/27 11:11:38;;;;;;;31.27;29.60;;;;;;;;;;5029264;28;20037;-58
2023/12/27 11:14:05;;;;;;;30.92;29.27;;;;;;;;;;5029419;28;20474;-54
2023/12/27 11:16:35;;;;;;;29.77;27.23;;;;;;;;;;5032170;28;20068;-55
2023/12/27 11:19:03;;;;;;;28.65;27.13;;;;;;;;;;5028313;28;20037;-54
2023/12/27 11:21:29;;;;;;;30.38;28.77;;;;;;;;;;5025496;28;22164;-56
2023/12/27 11:23:55;;;;;;;30.52;28.75;;;;;;;;;;5030550;28;20071;-55
2023/12/27 11:26:21;;;;;;;32.47;30.77;;;;;;;;;;5028570;28;20499;-52
2023/12/27 11:28:47;;;;;;;28.75;27.15;;;;;;;;;;5026131;28;20182;-54
2023/12/27 11:31:13;;;;;;;29.20;27.60;;;;;;;;;;5020711;28;20124;-56
2023/12/27 11:33:42;;;;;;;30.73;28.95;;;;;;;;;;5026965;28;20040;-55
2023/12/27 11:36:09;;;;;;;30.58;28.95;;;;;;;;;;5024148;28;20072;-55
2023/12/27 11:38:36;;;;;;;30.35;28.75;;;;;;;;;;5024171;28;20499;-54
2023/12/27 11:41:02;;;;;;;28.80;27.30;;;;;;;;;;5024797;28;20033;-56
2023/12/27 11:43:50;;;;;;;28.02;26.52;;;;;;;;;;5026845;28;20041;-56
2023/12/27 11:46:26;;;;;;;28.90;27.10;;;;;;;;;;5013611;28;20108;-54
2023/12/27 11:48:52;;;;;;;27.35;25.88;;;;;;;;;;5029082;28;20033;-56
2023/12/27 11:51:32;;;;;;;29.08;27.55;;;;;;;;;;5029526;28;20045;-56
2023/12/27 11:53:58;;;;;;;27.80;26.30;;;;;;;;;;5026154;28;20044;-56
2023/12/27 11:56:27;;;;;;;28.23;26.73;;;;;;;;;;5025533;28;20125;-55
2023/12/27 11:58:53;;;;;;;27.52;26.02;;;;;;;;;;5026430;28;20088;-56
2023/12/27 12:01:24;;;;;;;26.52;24.83;;;;;;;;;;5028990;28;20048;-56
2023/12/27 12:04:01;;;;;;;;;;;;;;;;;;5029604;28;20030;-57
2023/12/27 12:06:54;;;;;;;26.92;25.48;;;;;;;;;;5032190;28;19912;-56
2023/12/27 12:09:30;;;;;;;27.08;25.63;;;;;;;;;;5028315;28;20044;-56
2023/12/27 12:11:55;;;;;;;29.73;27.85;;;;;;;;;;5023761;28;20162;-56
2023/12/27 12:14:21;;;;;;;26.90;25.48;;;;;;;;;;5027704;28;20074;-57
2023/12/27 12:16:47;;;;;;;26.15;24.75;;;;;;;;;;5024109;28;20836;-57
2023/12/27 12:19:16;;;;;;;26.40;24.80;;;;;;;;;;5026949;28;20044;-55
2023/12/27 12:21:41;;;;;;;27.42;25.92;;;;;;;;;;5027209;28;20036;-56
2023/12/27 12:24:08;;;;;;;24.33;23.02;;;;;;;;;;5026549;28;20045;-56
2023/12/27 12:26:34;;;;;;;28.42;26.92;;;;;;;;;;5022050;28;20175;-56
2023/12/27 12:29:01;;;;;;;26.08;24.67;;;;;;;;;;5026896;28;20447;-56
2023/12/27 12:31:27;;;;;;;26.55;25.15;;;;;;;;;;5025478;28;20041;-57
2023/12/27 12:33:53;;;;;;;24.90;23.60;;;;;;;;;;5028927;28;20037;-54
2023/12/27 12:36:18;;;;;;;25.10;23.67;;;;;;;;;;5033862;28;20049;-57
2023/12/27 12:38:44;;;;;;;29.38;27.75;;;;;;;;;;5032214;28;20066;-56
2023/12/27 12:41:11;;;;;;;27.30;25.80;;;;;;;;;;5033521;28;20636;-56
2023/12/27 12:43:37;;;;;;;29.00;27.45;;;;;;;;;;5031684;28;21142;-57
2023/12/27 12:46:03;;;;;;;28.30;26.80;;;;;;;;;;5027578;28;20047;-57
2023/12/27 12:48:28;;;;;;;26.83;25.38;;;;;;;;;;5028241;28;20041;-57
2023/12/27 12:51:15;;;;;;;28.45;26.95;;;;;;;;;;5028871;28;20029;-56
2023/12/27 12:53:41;;;;;;;27.65;26.13;;;;;;;;;;5028660;28;20041;-57
2023/12/27 12:56:07;;;;;;;27.52;26.08;;;;;;;;;;5028310;28;20094;-57
2023/12/27 12:58:35;;;;;;;27.08;25.50;;;;;;;;;;5028015;28;20609;-56
2023/12/27 13:01:01;;;;;;;27.70;26.20;;;;;;;;;;5031117;28;20045;-56
2023/12/27 13:03:27;;;;;;;26.95;25.52;;;;;;;;;;5029210;28;20379;-57
2023/12/27 13:05:53;;;;;;;28.90;27.33;;;;;;;;;;5026724;28;20486;-56
2023/12/27 13:08:18;;;;;;;28.10;26.60;;;;;;;;;;5027952;28;20034;-57
2023/12/27 13:10:45;;;;;;;28.05;26.58;;;;;;;;;;5025537;28;20061;-56
2023/12/27 13:13:12;;;;;;;28.00;26.50;;;;;;;;;;5033046;28;20486;-56
2023/12/27 13:15:38;;;;;;;29.48;27.73;;;;;;;;;;5032344;28;20360;-58
2023/12/27 13:18:03;;;;;;;30.85;29.02;;;;;;;;;;5028760;28;20033;-56
2023/12/27 13:20:29;;;;;;;27.48;26.05;;;;;;;;;;5027205;28;20033;-56
2023/12/27 13:22:54;;;;;;;29.77;28.15;;;;;;;;;;5028913;28;20034;-57
2023/12/27 13:25:20;;;;;;;27.67;26.20;;;;;;;;;;5027409;28;20068;-54
2023/12/27 13:27:46;;;;;;;27.67;26.20;;;;;;;;;;5030003;28;20044;-54
2023/12/27 13:30:12;;;;;;;29.58;27.70;;;;;;;;;;5031687;28;20604;-57
2023/12/27 13:32:38;;;;;;;28.88;27.38;;;;;;;;;;5027716;28;20072;-58
2023/12/27 13:35:03;;;;;;;27.05;25.65;;;;;;;;;;5031612;28;20501;-53
2023/12/27 13:37:29;;;;;;;29.55;27.45;;;;;;;;;;5023558;28;20048;-57
2023/12/27 13:39:54;;;;;;;27.77;26.33;;;;;;;;;;5020759;28;20064;-55
2023/12/27 13:42:20;;;;;;;28.35;26.85;;;;;;;;;;5024773;28;20244;-56
2023/12/27 13:44:45;;;;;;;27.92;26.42;;;;;;;;;;5025579;28;20052;-56
2023/12/27 13:47:10;;;;;;;26.20;24.80;;;;;;;;;;5025068;28;20037;-53
2023/12/27 13:49:36;;;;;;;28.65;26.98;;;;;;;;;;5025108;28;20045;-55
2023/12/27 13:52:01;;;;;;;28.65;26.75;;;;;;;;;;5025644;28;20029;-55
2023/12/27 13:54:27;;;;;;;29.08;27.17;;;;;;;;;;5024518;28;20048;-57
2023/12/27 13:56:52;;;;;;;30.17;27.70;;;;;;;;;;5024037;28;20025;-56
2023/12/27 13:59:18;;;;;;;28.15;26.65;;;;;;;;;;5023708;28;20438;-57
2023/12/27 14:01:44;;;;;;;30.63;28.58;;;;;;;;;;5024479;28;20107;-56
2023/12/27 14:04:09;;;;;;;27.65;26.15;;;;;;;;;;5026519;28;20133;-53
2023/12/27 14:06:37;;;;;;;28.05;26.55;;;;;;;;;;5024948;28;20116;-56
2023/12/27 14:09:04;;;;;;;29.55;27.95;;;;;;;;;;5027428;28;20061;-53
2023/12/27 14:11:29;;;;;;;29.45;27.80;;;;;;;;;;5023778;28;20076;-59